Time;durP1;ratioP1;P1;durP2;ratioP2;P2;SDS_P1;SDS_P2;PMS_P1;PMS_P2;Temp;Humidity;BMP_temperature;BMP_pressure;BME280_temperature;BME280_humidity;BME280_pressure;Samples;Min_cycle;Max_cycle;Signal;HPM_P1;HPM_P2
2022/06/26 00:01:22;;;;;;;;;;;;;;;;;;5118248;28;19915;-22
2022/06/26 00:03:48;;;;;;;;;;;;;;;;;;5117553;28;19912;-23
2022/06/26 00:06:14;;;;;;;;;;;;;;;;;;5117503;28;20053;-24
2022/06/26 00:08:40;;;;;;;;;;;;;;;;;;5117446;28;20002;-22
2022/06/26 00:11:06;;;;;;;;;;;;;;;;;;5117484;28;19919;-23
2022/06/26 00:13:32;;;;;;;;;;;;;;;;;;5117397;28;19919;-23
2022/06/26 00:15:58;;;;;;;;;;;;;;;;;;5117392;28;19968;-23
2022/06/26 00:18:24;;;;;;;;;;;;;;;;;;5117375;28;19908;-24
2022/06/26 00:20:50;;;;;;;;;;;;;;;;;;5118146;28;19912;-23
2022/06/26 00:23:16;;;;;;;;;;;;;;;;;;5117184;28;20344;-22
2022/06/26 00:25:42;;;;;;;;;;;;;;;;;;5117805;28;19915;-23
2022/06/26 00:28:08;;;;;;;;;;;;;;;;;;5117374;28;19962;-22
2022/06/26 00:30:34;;;;;;;;;;;;;;;;;;5117042;28;20369;-23
2022/06/26 00:33:00;;;;;;;;;;;;;;;;;;5116966;28;19950;-23
2022/06/26 00:35:26;;;;;;;;;;;;;;;;;;5117001;28;19912;-23
2022/06/26 00:37:52;;;;;;;;;;;;;;;;;;5117516;28;19919;-22
2022/06/26 00:40:18;;;;;;;;;;;;;;;;;;5116895;28;20251;-22
2022/06/26 00:42:44;;;;;;;;;;;;;;;;;;5116809;28;20228;-23
2022/06/26 00:45:10;;;;;;;;;;;;;;;;;;5116564;28;19918;-23
2022/06/26 00:47:36;;;;;;;;;;;;;;;;;;5117143;28;20006;-22
2022/06/26 00:50:02;;;;;;;;;;;;;;;;;;5116760;28;19916;-22
2022/06/26 00:52:28;;;;;;;;;;;;;;;;;;5116856;28;19923;-22
2022/06/26 00:54:54;;;;;;;;;;;;;;;;;;5116630;28;19916;-23
2022/06/26 00:57:20;;;;;;;;;;;;;;;;;;5116580;28;19912;-23
2022/06/26 00:59:46;;;;;;;;;;;;;;;;;;5116522;28;19908;-24
2022/06/26 01:02:12;;;;;;;;;;;;;;;;;;5116419;28;19957;-23
2022/06/26 01:04:38;;;;;;;;;;;;;;;;;;5117003;28;19952;-23
2022/06/26 01:07:04;;;;;;;;;;;;;;;;;;5116279;28;19915;-23
2022/06/26 01:09:30;;;;;;;;;;;;;;;;;;5116256;28;19915;-23
2022/06/26 01:11:56;;;;;;;;;;;;;;;;;;5116509;28;19912;-23
2022/06/26 01:14:22;;;;;;;;;;;;;;;;;;5116338;28;20270;-24
2022/06/26 01:16:47;;;;;;;;;;;;;;;;;;5116819;28;19912;-23
2022/06/26 01:19:13;;;;;;;;;;;;;;;;;;5116201;28;19987;-22
2022/06/26 01:21:40;;;;;;;;;;;;;;;;;;5116431;28;19935;-23
2022/06/26 01:24:06;;;;;;;;;;;;;;;;;;5116023;28;19968;-22
2022/06/26 01:26:32;;;;;;;;;;;;;;;;;;5116265;28;19920;-22
2022/06/26 01:28:57;;;;;;;;;;;;;;;;;;5116059;28;20286;-22
2022/06/26 01:31:24;;;;;;;;;;;;;;;;;;5116048;28;19908;-23
2022/06/26 01:33:50;;;;;;;;;;;;;;;;;;5115940;28;19918;-22
2022/06/26 01:36:16;;;;;;;;;;;;;;;;;;5116247;28;20079;-22
2022/06/26 01:38:41;;;;;;;;;;;;;;;;;;5115801;28;19920;-23
2022/06/26 01:41:07;;;;;;;;;;;;;;;;;;5116172;28;19908;-22
2022/06/26 01:43:34;;;;;;;;;;;;;;;;;;5116326;28;20360;-22
2022/06/26 01:45:59;;;;;;;;;;;;;;;;;;5115571;28;19977;-23
2022/06/26 01:48:25;;;;;;;;;;;;;;;;;;5115733;28;19943;-23
2022/06/26 01:50:52;;;;;;;;;;;;;;;;;;5115984;28;19916;-23
2022/06/26 01:53:18;;;;;;;;;;;;;;;;;;5115989;28;20305;-23
2022/06/26 01:55:43;;;;;;;;;;;;;;;;;;5115651;28;20254;-22
2022/06/26 01:58:10;;;;;;;;;;;;;;;;;;5115668;28;19908;-23
2022/06/26 02:00:36;;;;;;;;;;;;;;;;;;5115927;28;19968;-22
2022/06/26 02:03:01;;;;;;;;;;;;;;;;;;5115553;28;19939;-23
2022/06/26 02:05:27;;;;;;;;;;;;;;;;;;5115641;28;19912;-23
2022/06/26 02:07:53;;;;;;;;;;;;;;;;;;5115429;28;19916;-22
2022/06/26 02:15:49;;;;;;;;;;;;;;;;;;5115610;28;20369;-22
2022/06/26 02:18:15;;;;;;;;;;;;;;;;;;5115440;28;19923;-23
2022/06/26 02:20:41;;;;;;;;;;;;;;;;;;5118752;28;19911;-23
2022/06/26 02:23:07;;;;;;;;;;;;;;;;;;5119739;28;19912;-22
2022/06/26 02:25:33;;;;;;;;;;;;;;;;;;5119549;28;19919;-22
2022/06/26 02:27:59;;;;;;;;;;;;;;;;;;5119988;28;19923;-21
2022/06/26 02:30:25;;;;;;;;;;;;;;;;;;5119462;28;19908;-25
2022/06/26 02:32:52;;;;;;;;;;;;;;;;;;5119597;28;19926;-22
2022/06/26 02:35:18;;;;;;;;;;;;;;;;;;5119654;28;20250;-23
2022/06/26 02:37:44;;;;;;;;;;;;;;;;;;5119233;28;19933;-23
2022/06/26 02:40:10;;;;;;;;;;;;;;;;;;5119343;28;20002;-22
2022/06/26 02:42:36;;;;;;;;;;;;;;;;;;5119715;28;20335;-23
2022/06/26 02:45:02;;;;;;;;;;;;;;;;;;5119004;28;19916;-23
2022/06/26 02:47:28;;;;;;;;;;;;;;;;;;5119381;28;19922;-23
2022/06/26 02:49:54;;;;;;;;;;;;;;;;;;5119098;28;19911;-22
2022/06/26 02:52:20;;;;;;;;;;;;;;;;;;5119537;28;19918;-22
2022/06/26 02:54:46;;;;;;;;;;;;;;;;;;5119009;28;20335;-23
2022/06/26 02:57:12;;;;;;;;;;;;;;;;;;5119481;28;20350;-23
2022/06/26 02:59:38;;;;;;;;;;;;;;;;;;5118971;28;20010;-24
2022/06/26 03:02:04;;;;;;;;;;;;;;;;;;5118737;28;20342;-22
2022/06/26 03:04:30;;;;;;;;;;;;;;;;;;5119072;28;19964;-22
2022/06/26 03:06:57;;;;;;;;;;;;;;;;;;5118722;28;19916;-24
2022/06/26 03:09:23;;;;;;;;;;;;;;;;;;5119039;28;20331;-22
2022/06/26 03:11:49;;;;;;;;;;;;;;;;;;5118563;28;19955;-22
2022/06/26 03:14:14;;;;;;;;;;;;;;;;;;5117656;28;19911;-24
2022/06/26 03:16:41;;;;;;;;;;;;;;;;;;5118542;28;19908;-23
2022/06/26 03:19:07;;;;;;;;;;;;;;;;;;5118523;28;19916;-21
2022/06/26 03:21:33;;;;;;;;;;;;;;;;;;5118412;28;19912;-22
2022/06/26 03:24:02;;;;;;;;;;;;;;;;;;5118416;28;19969;-21
2022/06/26 03:26:28;;;;;;;;;;;;;;;;;;5118642;28;19915;-22
2022/06/26 03:28:54;;;;;;;;;;;;;;;;;;5118359;28;20002;-22
2022/06/26 03:31:20;;;;;;;;;;;;;;;;;;5117429;28;20329;-21
2022/06/26 03:33:46;;;;;;;;;;;;;;;;;;5118159;28;19912;-21
2022/06/26 03:36:12;;;;;;;;;;;;;;;;;;5118257;28;19912;-22
2022/06/26 03:38:38;;;;;;;;;;;;;;;;;;5118402;28;20423;-21
2022/06/26 03:41:04;;;;;;;;;;;;;;;;;;5118127;28;19946;-22
2022/06/26 03:43:30;;;;;;;;;;;;;;;;;;5117926;28;19968;-21
2022/06/26 03:45:56;;;;;;;;;;;;;;;;;;5124056;27;19927;-23
2022/06/26 03:48:22;;;;;;;;;;;;;;;;;;5118454;28;20376;-22
2022/06/26 03:50:48;;;;;;;;;;;;;;;;;;5117940;28;19912;-22
2022/06/26 03:53:14;;;;;;;;;;;;;;;;;;5118402;28;19912;-24
2022/06/26 03:55:40;;;;;;;;;;;;;;;;;;5117883;28;19912;-23
2022/06/26 03:58:06;;;;;;;;;;;;;;;;;;5117761;28;20307;-22
2022/06/26 04:00:32;;;;;;;;;;;;;;;;;;5117796;28;19961;-22
2022/06/26 04:02:58;;;;;;;;;;;;;;;;;;5118040;28;19922;-21
2022/06/26 04:05:24;;;;;;;;;;;;;;;;;;5118189;28;19911;-22
2022/06/26 04:07:50;;;;;;;;;;;;;;;;;;5117531;28;19911;-21
2022/06/26 04:10:15;;;;;;;;;;;;;;;;;;5117543;28;19917;-21
2022/06/26 04:12:41;;;;;;;;;;;;;;;;;;5117832;28;20445;-22
2022/06/26 04:15:07;;;;;;;;;;;;;;;;;;5117411;28;19965;-21
2022/06/26 04:17:33;;;;;;;;;;;;;;;;;;5117691;28;19961;-23
2022/06/26 04:19:59;;;;;;;;;;;;;;;;;;5117335;28;19911;-22
2022/06/26 04:22:25;;;;;;;;;;;;;;;;;;5117227;28;19908;-22
2022/06/26 04:24:51;;;;;;;;;;;;;;;;;;5117279;28;19958;-21
2022/06/26 04:27:18;;;;;;;;;;;;;;;;;;5117110;28;19922;-22
2022/06/26 04:29:44;;;;;;;;;;;;;;;;;;5117185;28;20330;-25
2022/06/26 04:32:10;;;;;;;;;;;;;;;;;;5117507;28;20323;-22
2022/06/26 04:34:36;;;;;;;;;;;;;;;;;;5117363;28;19911;-28
2022/06/26 04:37:02;;;;;;;;;;;;;;;;;;5117286;28;19992;-23
2022/06/26 04:39:28;;;;;;;;;;;;;;;;;;5117253;28;20262;-22
2022/06/26 04:41:54;;;;;;;;;;;;;;;;;;5117077;28;19918;-22
2022/06/26 04:44:20;;;;;;;;;;;;;;;;;;5117180;28;20257;-22
2022/06/26 04:46:46;;;;;;;;;;;;;;;;;;5116543;28;19927;-22
2022/06/26 04:49:12;;;;;;;;;;;;;;;;;;5116728;28;19912;-24
2022/06/26 04:51:38;;;;;;;;;;;;;;;;;;5116772;28;19968;-22
2022/06/26 04:54:04;;;;;;;;;;;;;;;;;;5116883;28;19916;-23
2022/06/26 04:56:30;;;;;;;;;;;;;;;;;;5116707;28;20422;-22
2022/06/26 04:58:56;;;;;;;;;;;;;;;;;;5116606;28;19961;-22
2022/06/26 05:01:22;;;;;;;;;;;;;;;;;;5116537;28;20028;-22
2022/06/26 05:03:48;;;;;;;;;;;;;;;;;;5116509;28;19919;-22
2022/06/26 05:06:14;;;;;;;;;;;;;;;;;;5116502;28;19999;-22
2022/06/26 05:08:40;;;;;;;;;;;;;;;;;;5116353;28;19915;-21
2022/06/26 05:11:06;;;;;;;;;;;;;;;;;;5116351;28;19912;-23
2022/06/26 05:13:32;;;;;;;;;;;;;;;;;;5116401;28;19922;-22
2022/06/26 05:15:58;;;;;;;;;;;;;;;;;;5116273;28;19916;-22
2022/06/26 05:18:24;;;;;;;;;;;;;;;;;;5116481;28;19919;-22
2022/06/26 05:20:50;;;;;;;;;;;;;;;;;;5116258;28;20297;-22
2022/06/26 05:23:17;;;;;;;;;;;;;;;;;;5116622;28;19912;-22
2022/06/26 05:25:43;;;;;;;;;;;;;;;;;;5116092;28;20312;-22
2022/06/26 05:28:09;;;;;;;;;;;;;;;;;;5116009;28;19911;-22
2022/06/26 05:30:35;;;;;;;;;;;;;;;;;;5116030;28;19988;-23
2022/06/26 05:33:01;;;;;;;;;;;;;;;;;;5116192;28;19947;-24
2022/06/26 05:35:27;;;;;;;;;;;;;;;;;;5116032;28;19908;-24
2022/06/26 05:37:53;;;;;;;;;;;;;;;;;;5115979;28;19911;-22
2022/06/26 05:40:19;;;;;;;;;;;;;;;;;;5115000;28;19912;-22
2022/06/26 05:42:45;;;;;;;;;;;;;;;;;;5115798;28;20299;-23
2022/06/26 05:45:11;;;;;;;;;;;;;;;;;;5116108;28;19911;-23
2022/06/26 05:47:37;;;;;;;;;;;;;;;;;;5115461;28;19919;-23
2022/06/26 05:50:03;;;;;;;;;;;;;;;;;;5115764;28;19915;-23
2022/06/26 05:52:29;;;;;;;;;;;;;;;;;;5116212;28;20304;-22
2022/06/26 05:54:55;;;;;;;;;;;;;;;;;;5115291;28;19907;-22
2022/06/26 05:57:21;;;;;;;;;;;;;;;;;;5116247;28;19912;-22
2022/06/26 05:59:47;;;;;;;;;;;;;;;;;;5115672;28;19969;-23
2022/06/26 06:02:13;;;;;;;;;;;;;;;;;;5115749;28;20354;-24
2022/06/26 06:04:39;;;;;;;;;;;;;;;;;;5116192;28;19914;-23
2022/06/26 06:07:05;;;;;;;;;;;;;;;;;;5115453;28;19916;-22
2022/06/26 06:09:31;;;;;;;;;;;;;;;;;;5115819;28;19961;-22
2022/06/26 06:11:57;;;;;;;;;;;;;;;;;;5115724;28;19911;-22
2022/06/26 06:14:23;;;;;;;;;;;;;;;;;;5116040;28;19912;-22
2022/06/26 06:16:49;;;;;;;;;;;;;;;;;;5115505;28;19914;-28
2022/06/26 06:19:14;;;;;;;;;;;;;;;;;;5115460;28;19920;-22
2022/06/26 06:21:40;;;;;;;;;;;;;;;;;;5115689;28;20019;-22
2022/06/26 06:24:06;;;;;;;;;;;;;;;;;;5115279;28;19927;-21
2022/06/26 06:26:32;;;;;;;;;;;;;;;;;;5115392;28;20308;-22
2022/06/26 06:28:58;;;;;;;;;;;;;;;;;;5115346;28;19922;-21
2022/06/26 06:31:24;;;;;;;;;;;;;;;;;;5115897;28;19916;-24
2022/06/26 06:33:50;;;;;;;;;;;;;;;;;;5115210;28;20347;-21
2022/06/26 06:36:16;;;;;;;;;;;;;;;;;;5115565;28;19934;-22
2022/06/26 06:38:42;;;;;;;;;;;;;;;;;;5115271;28;20392;-22
2022/06/26 06:41:08;;;;;;;;;;;;;;;;;;5115282;28;20232;-22
2022/06/26 06:43:34;;;;;;;;;;;;;;;;;;5115128;28;20299;-22
2022/06/26 06:46:00;;;;;;;;;;;;;;;;;;5115590;28;19908;-21
2022/06/26 06:48:26;;;;;;;;;;;;;;;;;;5115438;28;19915;-22
2022/06/26 06:50:52;;;;;;;;;;;;;;;;;;5115727;28;19934;-25
2022/06/26 06:53:18;;;;;;;;;;;;;;;;;;5115087;28;19908;-24
2022/06/26 06:55:44;;;;;;;;;;;;;;;;;;5115722;28;19915;-21
2022/06/26 06:58:10;;;;;;;;;;;;;;;;;;5115102;28;19911;-21
2022/06/26 07:00:36;;;;;;;;;;;;;;;;;;5115417;28;19908;-21
2022/06/26 07:03:02;;;;;;;;;;;;;;;;;;5115043;28;20350;-22
2022/06/26 07:05:28;;;;;;;;;;;;;;;;;;5115629;28;19911;-21
2022/06/26 07:07:54;;;;;;;;;;;;;;;;;;5118293;28;20289;-22
2022/06/26 07:10:20;;;;;;;;;;;;;;;;;;5119301;28;20015;-22
2022/06/26 07:12:46;;;;;;;;;;;;;;;;;;5118614;28;20358;-22
2022/06/26 07:15:12;;;;;;;;;;;;;;;;;;5118646;28;20014;-22
2022/06/26 07:17:38;;;;;;;;;;;;;;;;;;5119129;28;19911;-21
2022/06/26 07:20:04;;;;;;;;;;;;;;;;;;5118803;28;19915;-22
2022/06/26 07:22:30;;;;;;;;;;;;;;;;;;5118939;28;20447;-23
2022/06/26 07:24:56;;;;;;;;;;;;;;;;;;5118706;28;19912;-22
2022/06/26 07:27:22;;;;;;;;;;;;;;;;;;5118247;28;19926;-21
2022/06/26 07:29:48;;;;;;;;;;;;;;;;;;5118370;28;19908;-21
2022/06/26 07:32:14;;;;;;;;;;;;;;;;;;5118473;28;19970;-24
2022/06/26 07:34:40;;;;;;;;;;;;;;;;;;5118863;28;20314;-22
2022/06/26 07:37:06;;;;;;;;;;;;;;;;;;5118994;28;19911;-23
2022/06/26 07:39:32;;;;;;;;;;;;;;;;;;5118136;28;20015;-22
2022/06/26 07:41:58;;;;;;;;;;;;;;;;;;5118015;28;19920;-21
2022/06/26 07:44:24;;;;;;;;;;;;;;;;;;5118039;28;19907;-21
2022/06/26 07:46:50;;;;;;;;;;;;;;;;;;5127101;27;19931;-22
2022/06/26 07:49:16;;;;;;;;;;;;;;;;;;5128803;27;20243;-22
2022/06/26 07:51:42;;;;;;;;;;;;;;;;;;5117942;28;20366;-24
2022/06/26 07:54:09;;;;;;;;;;;;;;;;;;5117862;28;19907;-22
2022/06/26 07:56:35;;;;;;;;;;;;;;;;;;5117835;28;20400;-22
2022/06/26 07:59:01;;;;;;;;;;;;;;;;;;5117813;28;19915;-24
2022/06/26 08:01:28;;;;;;;;;;;;;;;;;;5118008;28;19953;-27
2022/06/26 08:03:54;;;;;;;;;;;;;;;;;;5116726;28;19907;-25
2022/06/26 08:06:20;;;;;;;;;;;;;;;;;;5117629;28;19922;-23
2022/06/26 08:08:46;;;;;;;;;;;;;;;;;;5117583;28;20010;-22
2022/06/26 08:11:12;;;;;;;;;;;;;;;;;;5117776;28;19916;-22
2022/06/26 08:13:38;;;;;;;;;;;;;;;;;;5116526;28;19973;-22
2022/06/26 08:16:04;;;;;;;;;;;;;;;;;;5117756;28;19959;-22
2022/06/26 08:18:30;;;;;;;;;;;;;;;;;;5117383;28;19908;-23
2022/06/26 08:20:56;;;;;;;;;;;;;;;;;;5117694;28;20259;-22
2022/06/26 08:23:22;;;;;;;;;;;;;;;;;;5117298;28;19922;-23
2022/06/26 08:25:48;;;;;;;;;;;;;;;;;;5117283;28;20375;-23
2022/06/26 08:28:14;;;;;;;;;;;;;;;;;;5117426;28;19923;-22
2022/06/26 08:30:40;;;;;;;;;;;;;;;;;;5117457;28;19912;-23
2022/06/26 08:33:06;;;;;;;;;;;;;;;;;;5117026;28;19919;-22
2022/06/26 08:35:32;;;;;;;;;;;;;;;;;;5117400;28;20262;-22
2022/06/26 08:37:58;;;;;;;;;;;;;;;;;;5117683;28;19912;-23
2022/06/26 08:40:24;;;;;;;;;;;;;;;;;;5117872;28;19918;-22
2022/06/26 08:42:52;;;;;;;;;;;;;;;;;;5116869;28;20002;-22
2022/06/26 08:45:18;;;;;;;;;;;;;;;;;;5117178;28;19908;-22
2022/06/26 08:47:43;;;;;;;;;;;;;;;;;;5116729;28;20371;-22
2022/06/26 08:50:10;;;;;;;;;;;;;;;;;;5116956;28;19999;-23
2022/06/26 08:52:36;;;;;;;;;;;;;;;;;;5116669;28;20362;-22
2022/06/26 08:55:03;;;;;;;;;;;;;;;;;;5116976;28;19927;-24
2022/06/26 08:57:29;;;;;;;;;;;;;;;;;;5116661;28;20007;-22
2022/06/26 08:59:55;;;;;;;;;;;;;;;;;;5116597;28;19912;-23
2022/06/26 09:02:21;;;;;;;;;;;;;;;;;;5116769;28;20011;-21
2022/06/26 09:04:47;;;;;;;;;;;;;;;;;;5116760;28;19998;-22
2022/06/26 09:07:13;;;;;;;;;;;;;;;;;;5116395;28;20423;-22
2022/06/26 09:09:42;;;;;;;;;;;;;;;;;;5116415;28;20003;-22
2022/06/26 09:12:08;;;;;;;;;;;;;;;;;;5116612;28;19915;-22
2022/06/26 09:14:34;;;;;;;;;;;;;;;;;;5116573;28;20258;-22
2022/06/26 09:17:00;;;;;;;;;;;;;;;;;;5116849;28;19908;-21
2022/06/26 09:19:28;;;;;;;;;;;;;;;;;;5116260;28;19922;-22
2022/06/26 09:21:54;;;;;;;;;;;;;;;;;;5116079;28;19943;-22
2022/06/26 09:24:20;;;;;;;;;;;;;;;;;;5116725;28;19912;-22
2022/06/26 09:26:46;;;;;;;;;;;;;;;;;;5116311;28;19907;-21
2022/06/26 09:29:12;;;;;;;;;;;;;;;;;;5115420;28;19915;-22
2022/06/26 09:31:38;;;;;;;;;;;;;;;;;;5116596;28;20312;-22
2022/06/26 09:34:04;;;;;;;;;;;;;;;;;;5115940;28;19907;-22
2022/06/26 09:36:30;;;;;;;;;;;;;;;;;;5115944;28;19964;-22
2022/06/26 09:38:56;;;;;;;;;;;;;;;;;;5115954;28;19998;-24
2022/06/26 09:41:22;;;;;;;;;;;;;;;;;;5115815;28;20304;-22
2022/06/26 09:43:48;;;;;;;;;;;;;;;;;;5115845;28;20008;-21
2022/06/26 09:46:14;;;;;;;;;;;;;;;;;;5115808;28;19912;-24
2022/06/26 09:48:40;;;;;;;;;;;;;;;;;;5115943;28;20362;-22
2022/06/26 09:51:13;;;;;;;;;;;;;;;;;;5115369;28;20223;-22
2022/06/26 09:53:39;;;;;;;;;;;;;;;;;;5116260;28;20288;-23
2022/06/26 09:56:05;;;;;;;;;;;;;;;;;;5115676;28;19915;-22
2022/06/26 09:58:31;;;;;;;;;;;;;;;;;;5115634;28;19957;-22
2022/06/26 10:06:27;;;;;;;;;;;;;;;;;;5115649;28;20251;-22
2022/06/26 10:08:53;;;;;;;;;;;;;;;;;;5115476;28;19922;-22
2022/06/26 10:11:19;;;;;;;;;;;;;;;;;;5115542;28;19968;-21
2022/06/26 10:13:45;;;;;;;;;;;;;;;;;;5116019;28;20318;-22
2022/06/26 10:16:11;;;;;;;;;;;;;;;;;;5115479;28;19912;-21
2022/06/26 10:18:37;;;;;;;;;;;;;;;;;;5115771;28;19912;-22
2022/06/26 10:21:03;;;;;;;;;;;;;;;;;;5115715;28;20255;-21
2022/06/26 10:23:29;;;;;;;;;;;;;;;;;;5115919;28;19936;-22
2022/06/26 10:25:55;;;;;;;;;;;;;;;;;;5115438;28;20342;-21
2022/06/26 10:28:21;;;;;;;;;;;;;;;;;;5115875;28;19916;-22
2022/06/26 10:30:47;;;;;;;;;;;;;;;;;;5115432;28;20232;-22
2022/06/26 10:33:20;;;;;;;;;;;;;;;;;;5115297;28;20263;-22
2022/06/26 10:35:46;;;;;;;;;;;;;;;;;;5115380;28;20435;-22
2022/06/26 10:38:12;;;;;;;;;;;;;;;;;;5115311;28;19920;-21
2022/06/26 10:43:23;;;;;;;;;;;;;;;;;;5119370;28;20414;-22
2022/06/26 10:45:49;;;;;;;;;;;;;;;;;;5119495;28;19994;-22
2022/06/26 10:48:15;;;;;;;;;;;;;;;;;;5118943;28;19943;-21
2022/06/26 10:50:41;;;;;;;;;;;;;;;;;;5119688;28;19923;-22
2022/06/26 10:53:07;;;;;;;;;;;;;;;;;;5118969;28;19930;-21
2022/06/26 10:55:33;;;;;;;;;;;;;;;;;;5119092;28;19916;-24
2022/06/26 10:57:59;;;;;;;;;;;;;;;;;;5119027;28;19916;-21
2022/06/26 11:00:25;;;;;;;;;;;;;;;;;;5118955;28;19918;-23
2022/06/26 11:02:51;;;;;;;;;;;;;;;;;;5118882;28;20184;-22
2022/06/26 11:05:17;;;;;;;;;;;;;;;;;;5117892;28;20323;-22
2022/06/26 11:07:43;;;;;;;;;;;;;;;;;;5118969;28;19969;-22
2022/06/26 11:10:09;;;;;;;;;;;;;;;;;;5119378;28;20330;-22
2022/06/26 11:12:35;;;;;;;;;;;;;;;;;;5118620;28;19973;-22
2022/06/26 11:15:01;;;;;;;;;;;;;;;;;;5119244;28;19922;-22
2022/06/26 11:17:27;;;;;;;;;;;;;;;;;;5118558;28;19923;-23
2022/06/26 11:22:40;;;;;;;;;;;;;;;;;;5118517;28;19923;-22
2022/06/26 11:25:06;;;;;;;;;;;;;;;;;;5118491;28;19951;-22
2022/06/26 11:27:32;;;;;;;;;;;;;;;;;;5118625;28;20032;-24
2022/06/26 11:29:58;;;;;;;;;;;;;;;;;;5118423;28;19918;-23
2022/06/26 11:32:24;;;;;;;;;;;;;;;;;;5118456;28;20007;-22
2022/06/26 11:34:50;;;;;;;;;;;;;;;;;;5117385;28;20365;-23
2022/06/26 11:37:16;;;;;;;;;;;;;;;;;;5118510;28;19947;-22
2022/06/26 11:39:42;;;;;;;;;;;;;;;;;;5117222;28;20014;-22
2022/06/26 11:42:08;;;;;;;;;;;;;;;;;;5118083;28;19912;-24
2022/06/26 11:44:34;;;;;;;;;;;;;;;;;;5118115;28;19961;-22
2022/06/26 11:47:00;;;;;;;;;;;;;;;;;;5118177;28;19923;-22
2022/06/26 11:49:26;;;;;;;;;;;;;;;;;;5118052;28;19923;-22
2022/06/26 11:51:51;;;;;;;;;;;;;;;;;;5117093;28;19915;-24
2022/06/26 11:54:17;;;;;;;;;;;;;;;;;;5117930;28;19958;-22
2022/06/26 11:56:43;;;;;;;;;;;;;;;;;;5117855;28;20301;-22
2022/06/26 11:59:09;;;;;;;;;;;;;;;;;;5118404;28;19912;-21
2022/06/26 12:01:35;;;;;;;;;;;;;;;;;;5118026;28;20311;-21
2022/06/26 12:04:01;;;;;;;;;;;;;;;;;;5117664;28;19995;-21
2022/06/26 12:06:27;;;;;;;;;;;;;;;;;;5118287;28;19915;-21
2022/06/26 12:08:53;;;;;;;;;;;;;;;;;;5117536;28;19968;-22
2022/06/26 12:11:19;;;;;;;;;;;;;;;;;;5117649;28;20357;-22
2022/06/26 12:13:45;;;;;;;;;;;;;;;;;;5117480;28;19941;-23
2022/06/26 12:16:11;;;;;;;;;;;;;;;;;;5117508;28;20338;-22
2022/06/26 12:18:37;;;;;;;;;;;;;;;;;;5118028;28;19951;-22
2022/06/26 12:21:03;;;;;;;;;;;;;;;;;;5117392;28;19955;-21
2022/06/26 12:23:30;;;;;;;;;;;;;;;;;;5117288;28;19908;-22
2022/06/26 12:25:56;;;;;;;;;;;;;;;;;;5118091;28;19951;-22
2022/06/26 12:28:22;;;;;;;;;;;;;;;;;;5117737;28;19915;-22
2022/06/26 12:30:48;;;;;;;;;;;;;;;;;;5117269;28;20388;-21
2022/06/26 12:33:14;;;;;;;;;;;;;;;;;;5117385;28;19934;-22
2022/06/26 12:35:40;;;;;;;;;;;;;;;;;;5117112;28;19994;-25
2022/06/26 12:38:06;;;;;;;;;;;;;;;;;;5117624;28;19950;-24
2022/06/26 12:40:34;;;;;;;;;;;;;;;;;;5117025;28;19912;-23
2022/06/26 12:43:00;;;;;;;;;;;;;;;;;;5117202;28;20003;-22
2022/06/26 12:45:26;;;;;;;;;;;;;;;;;;5116835;28;20322;-22
2022/06/26 12:47:52;;;;;;;;;;;;;;;;;;5117073;28;19915;-22
2022/06/26 12:50:18;;;;;;;;;;;;;;;;;;5116666;28;19920;-22
2022/06/26 12:52:44;;;;;;;;;;;;;;;;;;5117292;28;20338;-23
2022/06/26 12:55:10;;;;;;;;;;;;;;;;;;5115786;28;20002;-24
2022/06/26 12:57:36;;;;;;;;;;;;;;;;;;5116689;28;19915;-22
2022/06/26 13:00:02;;;;;;;;;;;;;;;;;;5116644;28;19916;-23
2022/06/26 13:02:28;;;;;;;;;;;;;;;;;;5117035;28;19912;-22
2022/06/26 13:04:54;;;;;;;;;;;;;;;;;;5115522;28;19912;-22
2022/06/26 13:07:20;;;;;;;;;;;;;;;;;;5116446;28;20024;-25
2022/06/26 13:09:47;;;;;;;;;;;;;;;;;;5116457;28;19939;-22
2022/06/26 13:12:12;;;;;;;;;;;;;;;;;;5116786;28;19912;-23
2022/06/26 13:14:39;;;;;;;;;;;;;;;;;;5116392;28;19915;-22
2022/06/26 13:17:04;;;;;;;;;;;;;;;;;;5116357;28;20262;-22
2022/06/26 13:19:30;;;;;;;;;;;;;;;;;;5116585;28;19914;-23
2022/06/26 13:21:56;;;;;;;;;;;;;;;;;;5116427;28;19912;-22
2022/06/26 13:24:22;;;;;;;;;;;;;;;;;;5116231;28;19951;-22
2022/06/26 13:26:49;;;;;;;;;;;;;;;;;;5115087;28;19912;-22
2022/06/26 13:29:15;;;;;;;;;;;;;;;;;;5116055;28;20358;-22
2022/06/26 13:31:41;;;;;;;;;;;;;;;;;;5115980;28;19920;-24
2022/06/26 13:34:07;;;;;;;;;;;;;;;;;;5116179;28;19998;-22
2022/06/26 13:36:33;;;;;;;;;;;;;;;;;;5116546;28;19912;-25
2022/06/26 13:38:59;;;;;;;;;;;;;;;;;;5116235;28;20220;-22
2022/06/26 13:41:25;;;;;;;;;;;;;;;;;;5115984;28;19968;-23
2022/06/26 13:43:51;;;;;;;;;;;;;;;;;;5116083;28;20010;-22
2022/06/26 13:46:17;;;;;;;;;;;;;;;;;;5115859;28;19918;-22
2022/06/26 13:48:43;;;;;;;;;;;;;;;;;;5115471;28;19924;-23
2022/06/26 13:51:09;;;;;;;;;;;;;;;;;;5115775;28;19963;-22
2022/06/26 13:53:35;;;;;;;;;;;;;;;;;;5115858;28;19991;-23
2022/06/26 13:56:01;;;;;;;;;;;;;;;;;;5114797;28;19991;-22
2022/06/26 13:58:27;;;;;;;;;;;;;;;;;;5115717;28;20318;-24
2022/06/26 14:00:53;;;;;;;;;;;;;;;;;;5115651;28;19912;-22
2022/06/26 14:03:19;;;;;;;;;;;;;;;;;;5115564;28;20296;-22
2022/06/26 14:05:45;;;;;;;;;;;;;;;;;;5116223;28;19907;-23
2022/06/26 14:08:11;;;;;;;;;;;;;;;;;;5115497;28;19916;-21
2022/06/26 14:10:37;;;;;;;;;;;;;;;;;;5115608;28;20357;-21
2022/06/26 14:13:04;;;;;;;;;;;;;;;;;;5115761;28;19912;-22
2022/06/26 14:15:29;;;;;;;;;;;;;;;;;;5117135;28;19935;-21
2022/06/26 14:17:55;;;;;;;;;;;;;;;;;;5120350;28;19911;-21
2022/06/26 14:20:21;;;;;;;;;;;;;;;;;;5119801;28;19977;-21
2022/06/26 14:28:17;;;;;;;;;;;;;;;;;;5119578;28;20001;-23
2022/06/26 14:30:43;;;;;;;;;;;;;;;;;;5119787;28;19969;-21
2022/06/26 14:33:09;;;;;;;;;;;;;;;;;;5119459;28;20339;-22
2022/06/26 14:35:35;;;;;;;;;;;;;;;;;;5119498;28;19965;-23
2022/06/26 14:38:01;;;;;;;;;;;;;;;;;;5119407;28;19911;-22
2022/06/26 14:40:27;;;;;;;;;;;;;;;;;;5119431;28;20339;-21
2022/06/26 14:42:53;;;;;;;;;;;;;;;;;;5119535;28;20233;-23
2022/06/26 14:45:19;;;;;;;;;;;;;;;;;;5119612;28;19912;-22
2022/06/26 14:47:45;;;;;;;;;;;;;;;;;;5119115;28;19915;-23
2022/06/26 14:50:11;;;;;;;;;;;;;;;;;;5119119;28;19927;-23
2022/06/26 14:52:37;;;;;;;;;;;;;;;;;;5119027;28;19911;-22
2022/06/26 14:55:04;;;;;;;;;;;;;;;;;;5119363;28;19971;-24
2022/06/26 14:57:30;;;;;;;;;;;;;;;;;;5119046;28;19949;-22
2022/06/26 14:59:56;;;;;;;;;;;;;;;;;;5119023;28;20277;-24
2022/06/26 15:02:22;;;;;;;;;;;;;;;;;;5118888;28;19915;-22
2022/06/26 15:04:48;;;;;;;;;;;;;;;;;;5119493;28;20415;-22
2022/06/26 15:07:14;;;;;;;;;;;;;;;;;;5119057;28;19916;-22
2022/06/26 15:09:40;;;;;;;;;;;;;;;;;;5119087;28;19908;-22
2022/06/26 15:12:06;;;;;;;;;;;;;;;;;;5118677;28;19919;-22
2022/06/26 15:14:33;;;;;;;;;;;;;;;;;;5119271;28;19916;-24
2022/06/26 15:16:59;;;;;;;;;;;;;;;;;;5119210;28;19911;-22
2022/06/26 15:19:25;;;;;;;;;;;;;;;;;;5118661;28;20391;-23
2022/06/26 15:21:51;;;;;;;;;;;;;;;;;;5119031;28;19918;-23
2022/06/26 15:24:17;;;;;;;;;;;;;;;;;;5119111;28;20242;-22
2022/06/26 15:26:43;;;;;;;;;;;;;;;;;;5117682;28;19912;-24
2022/06/26 15:29:09;;;;;;;;;;;;;;;;;;5118576;28;19923;-22
2022/06/26 15:31:35;;;;;;;;;;;;;;;;;;5118935;28;19919;-22
2022/06/26 15:34:01;;;;;;;;;;;;;;;;;;5118518;28;19912;-23
2022/06/26 15:36:27;;;;;;;;;;;;;;;;;;5118312;28;19919;-22
2022/06/26 15:38:53;;;;;;;;;;;;;;;;;;5118531;28;19911;-22
2022/06/26 15:41:19;;;;;;;;;;;;;;;;;;5118206;28;19916;-22
2022/06/26 15:43:45;;;;;;;;;;;;;;;;;;5118107;28;19919;-24
2022/06/26 15:46:11;;;;;;;;;;;;;;;;;;5118376;28;19951;-22
2022/06/26 15:48:37;;;;;;;;;;;;;;;;;;5118197;28;19919;-22
2022/06/26 15:51:03;;;;;;;;;;;;;;;;;;5118020;28;19911;-22
2022/06/26 15:53:29;;;;;;;;;;;;;;;;;;5117896;28;19908;-23
2022/06/26 15:55:55;;;;;;;;;;;;;;;;;;5117953;28;19912;-22
2022/06/26 15:58:21;;;;;;;;;;;;;;;;;;5118200;28;19911;-22
2022/06/26 16:00:47;;;;;;;;;;;;;;;;;;5118393;28;19919;-22
2022/06/26 16:03:13;;;;;;;;;;;;;;;;;;5118015;28;19912;-23
2022/06/26 16:05:39;;;;;;;;;;;;;;;;;;5117831;28;20353;-23
2022/06/26 16:08:05;;;;;;;;;;;;;;;;;;5117940;28;19919;-22
2022/06/26 16:10:31;;;;;;;;;;;;;;;;;;5117991;28;19919;-22
2022/06/26 16:12:57;;;;;;;;;;;;;;;;;;5117547;28;19923;-22
2022/06/26 16:15:23;;;;;;;;;;;;;;;;;;5117605;28;20277;-21
2022/06/26 16:17:49;;;;;;;;;;;;;;;;;;5117505;28;20286;-24
2022/06/26 16:20:15;;;;;;;;;;;;;;;;;;5117784;28;19915;-23
2022/06/26 16:28:10;;;;;;;;;;;;;;;;;;5117583;28;19976;-23
2022/06/26 16:30:36;;;;;;;;;;;;;;;;;;5117262;28;20293;-24
2022/06/26 16:33:02;;;;;;;;;;;;;;;;;;5117164;28;19916;-22
2022/06/26 16:35:28;;;;;;;;;;;;;;;;;;5117450;28;19911;-22
2022/06/26 16:37:54;;;;;;;;;;;;;;;;;;5117157;28;20283;-22
2022/06/26 16:40:23;;;;;;;;;;;;;;;;;;5117093;28;19915;-22
2022/06/26 16:42:49;;;;;;;;;;;;;;;;;;5117384;28;19923;-24
2022/06/26 16:45:15;;;;;;;;;;;;;;;;;;5118041;28;19922;-22
2022/06/26 16:47:41;;;;;;;;;;;;;;;;;;5116776;28;20533;-23
2022/06/26 16:50:07;;;;;;;;;;;;;;;;;;5116757;28;19962;-21
2022/06/26 16:52:35;;;;;;;;;;;;;;;;;;5116720;28;19911;-22
2022/06/26 16:55:01;;;;;;;;;;;;;;;;;;5117054;28;20003;-22
2022/06/26 16:57:27;;;;;;;;;;;;;;;;;;5116966;28;20024;-23
2022/06/26 16:59:53;;;;;;;;;;;;;;;;;;5116624;28;20010;-25
2022/06/26 17:02:19;;;;;;;;;;;;;;;;;;5117164;28;19911;-27
2022/06/26 17:04:45;;;;;;;;;;;;;;;;;;5116876;28;19919;-22